Time;durP1;ratioP1;P1;durP2;ratioP2;P2;SDS_P1;SDS_P2;PMS_P1;PMS_P2;Temp;Humidity;BMP_temperature;BMP_pressure;BME280_temperature;BME280_humidity;BME280_pressure;Samples;Min_cycle;Max_cycle;Signal;HPM_P1;HPM_P2
2023/12/18 00:01:33;;;;;;;54.97;29.98;;;-0.30;99.90;;;;;;5031474;28;20049;-86
2023/12/18 00:04:22;;;;;;;53.60;29.83;;;-0.30;99.90;;;;;;5030936;28;20045;-83
2023/12/18 00:07:09;;;;;;;54.63;30.75;;;-0.30;99.90;;;;;;5031824;28;20053;-85
2023/12/18 00:09:56;;;;;;;55.55;29.33;;;-0.40;99.90;;;;;;5031834;28;20052;-85
2023/12/18 00:12:45;;;;;;;52.38;29.60;;;-0.40;99.90;;;;;;5018384;28;20037;-86
2023/12/18 00:15:32;;;;;;;57.83;30.85;;;-0.50;99.90;;;;;;5030795;28;20049;-85
2023/12/18 00:18:19;;;;;;;55.33;32.17;;;-0.60;99.90;;;;;;5021328;28;20116;-83
2023/12/18 00:21:07;;;;;;;59.50;35.05;;;-0.40;99.90;;;;;;5033754;28;20105;-84
2023/12/18 00:23:54;;;;;;;52.03;31.73;;;-0.20;99.90;;;;;;5029699;28;20511;-86
2023/12/18 00:26:41;;;;;;;41.90;25.50;;;0.00;99.90;;;;;;5029820;28;20576;-87
2023/12/18 00:29:29;;;;;;;38.40;22.45;;;0.00;99.90;;;;;;5029381;28;20049;-85
2023/12/18 00:32:16;;;;;;;33.97;21.40;;;-0.20;99.90;;;;;;5028988;28;20064;-87
2023/12/18 00:35:03;;;;;;;41.10;23.73;;;-0.20;99.90;;;;;;5034089;28;20057;-86
2023/12/18 00:37:52;;;;;;;39.17;22.75;;;-0.30;99.90;;;;;;5013600;28;20060;-85
2023/12/18 00:40:39;;;;;;;38.13;22.55;;;-0.50;99.90;;;;;;5014315;28;20068;-87
2023/12/18 00:43:26;;;;;;;34.60;21.23;;;-0.60;99.90;;;;;;5030486;28;20061;-86
2023/12/18 00:46:14;;;;;;;33.97;20.92;;;-0.60;99.90;;;;;;5032859;28;20064;-86
2023/12/18 00:49:27;;;;;;;27.73;18.42;;;-0.60;99.90;;;;;;5032442;28;20045;-85
2023/12/18 00:52:38;;;;;;;38.15;20.75;;;-0.70;99.90;;;;;;5018297;28;20113;-83
2023/12/18 00:55:25;;;;;;;29.20;17.67;;;-0.70;99.90;;;;;;5027733;28;20147;-83
2023/12/18 00:58:13;;;;;;;26.98;16.63;;;-0.60;99.90;;;;;;5030054;28;20556;-84
2023/12/18 01:01:00;;;;;;;30.70;17.60;;;-0.50;99.90;;;;;;5031327;28;20045;-79
2023/12/18 01:03:47;;;;;;;29.73;16.80;;;-0.40;99.90;;;;;;5020423;28;20044;-84
2023/12/18 01:06:35;;;;;;;27.00;16.40;;;-0.50;99.90;;;;;;5031907;28;20037;-84
2023/12/18 01:09:23;;;;;;;24.45;15.38;;;-0.40;99.90;;;;;;5029109;28;20045;-81
2023/12/18 01:12:10;;;;;;;25.73;15.70;;;-0.40;99.90;;;;;;5031787;28;20037;-86
2023/12/18 01:14:57;;;;;;;23.58;14.32;;;-0.40;99.90;;;;;;5022121;28;20037;-83
2023/12/18 01:17:48;;;;;;;26.58;15.45;;;-0.40;99.90;;;;;;5032653;28;20042;-87
2023/12/18 01:20:37;;;;;;;21.63;13.38;;;-0.40;99.90;;;;;;5033015;28;20041;-86
2023/12/18 01:23:24;;;;;;;28.67;15.82;;;-0.40;99.90;;;;;;5036280;28;20052;-85
2023/12/18 01:26:11;;;;;;;32.03;19.35;;;-0.40;99.90;;;;;;5034773;28;20626;-86
2023/12/18 01:28:59;;;;;;;33.95;20.23;;;-0.30;99.90;;;;;;5035005;28;20060;-86
2023/12/18 01:31:46;;;;;;;34.75;20.83;;;-0.20;99.90;;;;;;5034048;28;20069;-86
2023/12/18 01:34:33;;;;;;;32.30;20.05;;;-0.20;99.90;;;;;;5022088;28;20053;-84
2023/12/18 01:37:23;;;;;;;33.58;20.02;;;-0.20;99.90;;;;;;5036273;28;20091;-86
2023/12/18 01:40:13;;;;;;;30.95;18.70;;;-0.20;99.90;;;;;;5023117;28;20041;-87
2023/12/18 01:43:00;;;;;;;32.22;20.33;;;-0.30;99.90;;;;;;5036177;28;20111;-87
2023/12/18 01:45:53;;;;;;;36.17;20.08;;;-0.30;99.90;;;;;;5035477;28;20369;-82
2023/12/18 01:48:40;;;;;;;;;;;-0.40;99.90;;;;;;5031621;28;20060;-86
2023/12/18 01:51:29;;;;;;;32.35;18.38;;;-0.50;99.90;;;;;;5033671;28;19921;-87
2023/12/18 01:54:22;;;;;;;29.08;18.50;;;-0.60;99.90;;;;;;5036236;28;20045;-85
2023/12/18 01:57:10;;;;;;;28.15;15.32;;;-0.60;99.90;;;;;;5023924;28;20057;-86
2023/12/18 02:00:03;;;;;;;25.70;14.07;;;-0.60;99.90;;;;;;5032666;28;20052;-87
2023/12/18 02:02:50;;;;;;;22.88;14.68;;;-0.40;99.90;;;;;;5038529;28;20052;-86
2023/12/18 02:05:40;;;;;;;21.38;13.52;;;-0.10;99.90;;;;;;5039075;28;20057;-86
2023/12/18 02:08:29;;;;;;;22.75;15.25;;;-0.10;99.90;;;;;;5028912;28;20052;-86
2023/12/18 02:11:16;;;;;;;18.25;12.07;;;-0.10;99.90;;;;;;5034292;28;20037;-86
2023/12/18 02:14:07;;;;;;;15.90;10.63;;;-0.10;99.90;;;;;;5030429;28;20124;-86
2023/12/18 02:16:55;;;;;;;21.60;14.52;;;0.00;99.90;;;;;;5032011;28;20038;-86
2023/12/18 02:19:44;;;;;;;18.30;11.48;;;0.00;99.90;;;;;;5030135;28;20049;-86
2023/12/18 02:22:50;;;;;;;22.83;13.35;;;-0.10;99.90;;;;;;5031595;28;20659;-87
2023/12/18 02:25:37;;;;;;;20.05;12.98;;;-0.10;99.90;;;;;;5029921;28;20057;-87
2023/12/18 02:28:25;;;;;;;17.98;12.02;;;-0.20;99.90;;;;;;5030400;28;20436;-86
2023/12/18 02:31:13;;;;;;;17.42;11.80;;;-0.20;99.90;;;;;;5027975;28;20038;-86
2023/12/18 02:34:01;;;;;;;15.77;10.57;;;-0.30;99.90;;;;;;5030399;28;20053;-86
2023/12/18 02:36:50;;;;;;;13.38;10.02;;;-0.30;99.90;;;;;;5032444;28;20229;-85
2023/12/18 02:39:41;;;;;;;16.60;10.02;;;-0.40;99.90;;;;;;5017438;28;20095;-82
2023/12/18 02:42:31;;;;;;;15.80;9.63;;;-0.50;99.90;;;;;;5031455;28;20046;-84
2023/12/18 02:45:18;;;;;;;16.52;10.27;;;-0.50;99.90;;;;;;5047932;28;20055;-84
2023/12/18 02:48:06;;;;;;;15.98;10.27;;;-0.50;99.90;;;;;;5018436;28;20087;-86
2023/12/18 02:50:56;;;;;;;16.33;10.55;;;-0.30;99.90;;;;;;5035684;28;20049;-86
2023/12/18 02:53:43;;;;;;;14.15;10.02;;;-0.30;99.90;;;;;;5030233;28;20377;-87
2023/12/18 02:56:30;;;;;;;14.85;10.07;;;-0.20;99.90;;;;;;5032541;28;20052;-87
2023/12/18 02:59:17;;;;;;;16.02;10.57;;;-0.20;99.90;;;;;;5022003;28;20184;-87
2023/12/18 03:02:04;;;;;;;19.48;11.70;;;-0.20;99.90;;;;;;5011680;28;20065;-87
2023/12/18 03:04:54;;;;;;;19.65;11.75;;;-0.20;99.90;;;;;;5012343;28;20050;-86
2023/12/18 03:07:41;;;;;;;18.58;12.07;;;-0.20;99.90;;;;;;5012849;28;20046;-86
2023/12/18 03:10:32;;;;;;;18.13;12.02;;;-0.20;99.90;;;;;;5014201;28;20048;-86
2023/12/18 03:13:19;;;;;;;20.08;12.23;;;-0.20;99.90;;;;;;5002679;28;20058;-86
2023/12/18 03:16:08;;;;;;;15.25;10.15;;;-0.10;99.90;;;;;;5016435;28;20469;-81
2023/12/18 03:18:57;;;;;;;16.73;9.90;;;-0.10;99.90;;;;;;5014186;28;20447;-86
2023/12/18 03:21:48;;;;;;;14.52;9.75;;;-0.10;99.90;;;;;;5019849;28;20942;-86
2023/12/18 03:24:42;;;;;;;11.65;8.07;;;-0.10;99.90;;;;;;5010923;28;20058;-87
2023/12/18 03:27:30;;;;;;;13.00;8.07;;;-0.10;99.90;;;;;;5012388;28;20065;-83
2023/12/18 03:30:17;;;;;;;12.00;8.55;;;0.00;99.90;;;;;;5014022;28;20431;-87
2023/12/18 03:33:05;;;;;;;12.85;8.07;;;-0.10;99.90;;;;;;5009020;28;20137;-84
2023/12/18 03:35:52;;;;;;;11.43;7.65;;;-0.20;99.90;;;;;;5012152;28;20053;-87
2023/12/18 03:38:40;;;;;;;10.23;6.82;;;-0.30;99.90;;;;;;5009165;28;20053;-86
2023/12/18 03:41:27;;;;;;;11.70;7.30;;;-0.40;99.90;;;;;;5016859;28;20042;-86
2023/12/18 03:44:16;;;;;;;9.23;6.85;;;-0.40;99.90;;;;;;5005289;28;20057;-85
2023/12/18 03:47:04;;;;;;;10.65;6.70;;;-0.30;99.90;;;;;;5010434;28;20038;-86
2023/12/18 03:49:51;;;;;;;9.73;6.40;;;-0.20;99.90;;;;;;5011177;28;20038;-88
2023/12/18 03:52:38;;;;;;;7.75;5.70;;;0.00;99.90;;;;;;5012058;28;20041;-84
2023/12/18 03:55:25;;;;;;;7.75;5.97;;;0.10;99.90;;;;;;4997779;28;20358;-87
2023/12/18 03:58:12;;;;;;;8.35;5.88;;;0.10;99.90;;;;;;5015633;28;20049;-86
2023/12/18 04:01:03;;;;;;;9.15;5.78;;;0.20;99.90;;;;;;5029417;28;20052;-85
2023/12/18 04:03:50;;;;;;;8.52;5.63;;;0.20;99.90;;;;;;5029458;28;20045;-82
2023/12/18 04:06:42;;;;;;;8.20;5.28;;;0.20;99.90;;;;;;5026170;28;20052;-86
2023/12/18 04:09:29;;;;;;;7.78;5.78;;;0.20;99.90;;;;;;5032680;28;20049;-87
2023/12/18 04:12:19;;;;;;;8.93;5.60;;;0.30;99.90;;;;;;5031616;28;20041;-87
2023/12/18 04:15:07;;;;;;;7.40;5.53;;;0.30;99.90;;;;;;5031529;28;20120;-86
2023/12/18 04:17:57;;;;;;;6.45;4.85;;;0.30;99.90;;;;;;5031433;28;20057;-86
2023/12/18 04:20:47;;;;;;;6.72;4.65;;;0.20;99.90;;;;;;5032438;28;20050;-87
2023/12/18 04:23:34;;;;;;;8.00;5.03;;;0.30;99.90;;;;;;5024647;28;20049;-87
2023/12/18 04:26:22;;;;;;;7.45;4.53;;;0.30;99.90;;;;;;5031976;28;20068;-87
2023/12/18 04:29:09;;;;;;;6.22;4.75;;;0.30;99.90;;;;;;5028813;28;20045;-87
2023/12/18 04:31:59;;;;;;;6.57;4.90;;;0.40;99.90;;;;;;5022226;28;20041;-86
2023/12/18 04:34:48;;;;;;;7.13;4.75;;;0.40;99.90;;;;;;5015442;28;20041;-87
2023/12/18 04:37:36;;;;;;;8.02;5.68;;;0.40;99.90;;;;;;5011441;28;20056;-87
2023/12/18 04:40:23;;;;;;;10.02;5.55;;;0.40;99.90;;;;;;5029200;28;20057;-87
2023/12/18 04:43:10;;;;;;;7.68;5.00;;;0.40;99.90;;;;;;5036839;28;20104;-86
2023/12/18 04:45:59;;;;;;;7.03;4.85;;;0.50;99.90;;;;;;5038085;28;20406;-85
2023/12/18 04:48:46;;;;;;;7.63;4.85;;;0.50;99.90;;;;;;5028871;28;20056;-86
2023/12/18 04:51:34;;;;;;;7.47;4.90;;;0.50;99.90;;;;;;5031884;28;20053;-82
2023/12/18 04:54:21;;;;;;;4.95;4.05;;;0.50;99.90;;;;;;5034962;28;20448;-86
2023/12/18 04:57:08;;;;;;;6.18;4.85;;;0.50;99.90;;;;;;5028161;28;20037;-86
2023/12/18 04:59:55;;;;;;;4.75;4.03;;;0.50;99.90;;;;;;5030985;28;20146;-87
2023/12/18 05:02:42;;;;;;;6.00;4.03;;;0.50;99.90;;;;;;5017593;28;20057;-86
2023/12/18 05:05:30;;;;;;;6.55;4.05;;;0.60;99.90;;;;;;5035270;28;20049;-85
2023/12/18 05:08:20;;;;;;;6.15;4.30;;;0.60;99.90;;;;;;5033194;28;20037;-87
2023/12/18 05:11:07;;;;;;;5.55;4.07;;;0.80;99.90;;;;;;5030846;28;20453;-84
2023/12/18 05:13:54;;;;;;;6.68;4.47;;;0.90;99.90;;;;;;5027490;28;20053;-86
2023/12/18 05:16:41;;;;;;;5.68;4.32;;;0.90;99.90;;;;;;5029188;28;20057;-86
2023/12/18 05:19:29;;;;;;;5.72;4.53;;;0.90;99.90;;;;;;5029520;28;20054;-86
2023/12/18 05:22:16;;;;;;;11.20;6.45;;;1.00;99.90;;;;;;5016128;28;20045;-84
2023/12/18 05:25:03;;;;;;;18.10;8.30;;;1.00;99.90;;;;;;5034506;28;20041;-84
2023/12/18 05:27:51;;;;;;;16.80;8.70;;;1.00;99.90;;;;;;5035939;28;20060;-81
2023/12/18 05:30:38;;;;;;;6.45;4.88;;;0.90;99.90;;;;;;5012947;28;20050;-86
2023/12/18 05:33:25;;;;;;;11.40;7.57;;;0.80;99.90;;;;;;5027201;28;20046;-87
2023/12/18 05:36:14;;;;;;;7.25;4.95;;;0.80;99.90;;;;;;5029169;28;20045;-82
2023/12/18 05:39:05;;;;;;;6.60;4.70;;;0.80;99.90;;;;;;5030294;28;20065;-86
2023/12/18 05:41:57;;;;;;;8.07;5.82;;;0.80;99.90;;;;;;5033219;28;20614;-83
2023/12/18 05:44:45;;;;;;;8.98;6.10;;;0.70;99.90;;;;;;5019542;28;20045;-83
2023/12/18 05:47:32;;;;;;;8.40;5.72;;;0.70;99.90;;;;;;5035803;28;20441;-83
2023/12/18 05:50:19;;;;;;;7.80;5.22;;;0.70;99.90;;;;;;5044008;28;20042;-85
2023/12/18 05:53:06;;;;;;;8.43;6.22;;;0.70;99.90;;;;;;5053299;28;20037;-88
2023/12/18 05:55:53;;;;;;;7.18;5.75;;;0.70;99.90;;;;;;5036574;28;20033;-84
2023/12/18 05:58:41;;;;;;;6.63;4.80;;;0.60;99.90;;;;;;5041068;28;20129;-83
2023/12/18 06:01:29;;;;;;;8.70;5.57;;;0.50;99.90;;;;;;5031748;28;20133;-84
2023/12/18 06:04:16;;;;;;;8.10;4.93;;;0.50;99.90;;;;;;5045293;28;20049;-83
2023/12/18 06:07:04;;;;;;;6.18;4.30;;;0.50;99.90;;;;;;5043609;28;20050;-83
2023/12/18 06:09:51;;;;;;;6.97;4.90;;;0.50;99.90;;;;;;5033625;28;20060;-83
2023/12/18 06:12:38;;;;;;;10.50;6.18;;;0.50;99.90;;;;;;5035297;28;20057;-81
2023/12/18 06:15:26;;;;;;;15.05;7.22;;;0.50;99.90;;;;;;5039851;28;20049;-85
2023/12/18 06:18:13;;;;;;;46.35;19.17;;;0.60;99.90;;;;;;5036571;28;20049;-86
2023/12/18 06:21:08;;;;;;;18.55;9.32;;;0.70;99.90;;;;;;5032364;28;20050;-85
2023/12/18 06:29:13;;;;;;;5.43;3.70;;;0.90;99.90;;;;;;5108803;22;20063;-81
2023/12/18 06:32:02;;;;;;;5.65;3.92;;;0.70;99.90;;;;;;5066136;28;20282;-80
2023/12/18 06:34:55;;;;;;;5.38;3.85;;;0.70;99.90;;;;;;5036690;28;20060;-80
2023/12/18 06:37:45;;;;;;;7.78;5.45;;;0.90;99.90;;;;;;5037422;28;20059;-79
2023/12/18 06:40:34;;;;;;;5.28;4.63;;;1.00;99.90;;;;;;5030537;28;20053;-82
2023/12/18 06:43:21;;;;;;;6.55;4.57;;;1.00;99.90;;;;;;5031930;28;20041;-82
2023/12/18 06:46:09;;;;;;;8.68;5.50;;;0.90;99.90;;;;;;5031072;28;20056;-79
2023/12/18 06:49:01;;;;;;;7.65;5.43;;;0.90;99.90;;;;;;5028329;28;20054;-79
2023/12/18 06:51:51;;;;;;;7.78;5.53;;;1.00;99.90;;;;;;5038619;28;20069;-80
2023/12/18 06:54:38;;;;;;;8.50;4.80;;;1.00;99.90;;;;;;5027556;28;20262;-81
2023/12/18 06:57:26;;;;;;;6.63;4.68;;;1.10;99.90;;;;;;5029559;28;20042;-77
2023/12/18 07:00:14;;;;;;;6.97;4.70;;;1.10;99.90;;;;;;5048505;28;20053;-79
2023/12/18 07:03:01;;;;;;;6.28;4.32;;;1.10;99.90;;;;;;5035383;28;20056;-78
2023/12/18 07:05:48;;;;;;;5.25;4.00;;;1.00;99.90;;;;;;5031814;28;20050;-79
2023/12/18 07:08:36;;;;;;;8.65;4.35;;;0.90;99.90;;;;;;5035232;28;20470;-77
2023/12/18 07:11:27;;;;;;;10.45;5.32;;;0.90;99.90;;;;;;5031203;28;20382;-79
2023/12/18 07:14:19;;;;;;;11.00;6.28;;;0.90;99.90;;;;;;5031778;28;20037;-77
2023/12/18 07:17:08;;;;;;;15.13;7.30;;;0.80;99.90;;;;;;5028342;28;20450;-80
2023/12/18 07:19:56;;;;;;;16.02;8.05;;;0.90;99.90;;;;;;5029739;28;20133;-78
2023/12/18 07:22:44;;;;;;;8.70;5.55;;;0.90;99.90;;;;;;5032315;28;20714;-80
2023/12/18 07:25:34;;;;;;;5.05;4.15;;;1.00;99.90;;;;;;5037682;28;20076;-79
2023/12/18 07:28:21;;;;;;;6.55;3.88;;;1.20;99.90;;;;;;5024249;28;20053;-79
2023/12/18 07:31:10;;;;;;;4.88;3.78;;;1.40;99.90;;;;;;5051422;28;20056;-82
2023/12/18 07:33:58;;;;;;;5.00;3.92;;;1.50;99.90;;;;;;5073557;28;20044;-80
2023/12/18 07:36:48;;;;;;;7.60;4.40;;;1.50;99.90;;;;;;5064565;28;20044;-82
2023/12/18 07:39:35;;;;;;;6.10;4.00;;;1.50;99.90;;;;;;5053827;28;20380;-83
2023/12/18 07:42:23;;;;;;;6.10;3.72;;;1.50;99.90;;;;;;5050570;28;20044;-80
2023/12/18 07:45:13;;;;;;;5.65;4.03;;;1.50;99.90;;;;;;5049328;28;20116;-81
2023/12/18 07:48:01;;;;;;;6.38;4.28;;;1.30;99.90;;;;;;5054471;28;20112;-79
2023/12/18 07:50:51;;;;;;;7.03;4.10;;;1.30;99.90;;;;;;5056112;28;20130;-81
2023/12/18 07:53:41;;;;;;;6.72;4.53;;;1.30;99.90;;;;;;5051060;28;20124;-82
2023/12/18 07:56:30;;;;;;;5.45;4.18;;;1.50;99.90;;;;;;5046905;28;20041;-82
2023/12/18 07:59:19;;;;;;;5.65;4.10;;;1.80;99.90;;;;;;5048547;28;20113;-82
2023/12/18 08:02:07;;;;;;;8.90;5.03;;;2.10;99.90;;;;;;5049207;28;20057;-83
2023/12/18 08:04:55;;;;;;;5.38;4.28;;;2.20;99.90;;;;;;5054353;28;20059;-83
2023/12/18 08:07:42;;;;;;;8.60;5.35;;;2.30;99.90;;;;;;5062338;28;20345;-83
2023/12/18 08:10:29;;;;;;;5.47;4.25;;;2.30;99.90;;;;;;5056256;28;20049;-85
2023/12/18 08:13:19;;;;;;;5.93;4.13;;;2.40;99.90;;;;;;5051235;28;20167;-79
2023/12/18 08:16:07;;;;;;;6.18;4.07;;;2.40;99.90;;;;;;5064314;28;20393;-83
2023/12/18 08:18:54;;;;;;;7.63;5.25;;;2.60;99.90;;;;;;5051157;28;20517;-84
2023/12/18 08:21:43;;;;;;;9.95;6.07;;;2.80;99.90;;;;;;5047763;28;20057;-86
2023/12/18 08:24:30;;;;;;;8.40;5.95;;;3.10;99.90;;;;;;5050930;28;20064;-85
2023/12/18 08:27:17;;;;;;;9.27;5.70;;;3.30;99.90;;;;;;5051061;28;20041;-83
2023/12/18 08:30:08;;;;;;;5.65;4.75;;;3.50;99.90;;;;;;5050412;28;20045;-85
2023/12/18 08:33:00;;;;;;;10.95;5.80;;;3.60;99.90;;;;;;5053418;28;20495;-83
2023/12/18 08:35:48;;;;;;;6.97;5.07;;;3.60;99.90;;;;;;5058656;28;20101;-82
2023/12/18 08:38:35;;;;;;;6.50;5.03;;;3.60;99.90;;;;;;5063630;28;20068;-83
2023/12/18 08:41:28;;;;;;;5.20;4.45;;;3.40;99.90;;;;;;5056917;28;20357;-82
2023/12/18 08:44:15;;;;;;;7.80;5.18;;;3.20;99.90;;;;;;5048344;28;20453;-84
2023/12/18 08:47:05;;;;;;;7.88;4.95;;;3.10;99.90;;;;;;5046816;28;20076;-83
2023/12/18 08:49:54;;;;;;;7.68;4.80;;;3.20;99.90;;;;;;5047490;28;20071;-82
2023/12/18 08:52:41;;;;;;;9.13;3.97;;;3.40;99.90;;;;;;5049579;28;20041;-83
2023/12/18 08:55:29;;;;;;;5.47;3.78;;;3.60;99.90;;;;;;5052774;28;20068;-84
2023/12/18 08:58:16;;;;;;;5.45;3.80;;;3.90;99.90;;;;;;5045308;28;20483;-83
2023/12/18 09:01:08;;;;;;;5.22;3.55;;;4.20;99.90;;;;;;5045717;28;20041;-83
2023/12/18 09:03:56;;;;;;;9.43;5.85;;;4.50;99.90;;;;;;5053508;28;20044;-82
2023/12/18 09:06:44;;;;;;;16.95;8.70;;;4.40;99.90;;;;;;5050647;28;20080;-83
2023/12/18 09:09:36;;;;;;;9.05;6.60;;;4.40;99.90;;;;;;5049605;28;20068;-82
2023/12/18 09:12:23;;;;;;;9.65;6.47;;;4.60;99.90;;;;;;5055377;28;20047;-82
2023/12/18 09:15:13;;;;;;;10.57;5.70;;;4.90;99.90;;;;;;5050265;28;20051;-81
2023/12/18 09:18:00;;;;;;;10.23;6.18;;;5.00;99.90;;;;;;5050750;28;20040;-85
2023/12/18 09:20:48;;;;;;;9.48;5.60;;;5.00;99.90;;;;;;5048105;28;20063;-84
2023/12/18 09:23:35;;;;;;;7.18;5.30;;;4.90;99.90;;;;;;5053566;28;20437;-83
2023/12/18 09:26:22;;;;;;;7.82;5.60;;;4.80;99.90;;;;;;5046366;28;20132;-83
2023/12/18 09:29:10;;;;;;;14.02;6.78;;;4.90;99.90;;;;;;5057426;28;20045;-84
2023/12/18 09:31:58;;;;;;;12.25;6.07;;;4.80;99.90;;;;;;5051567;28;20461;-83
2023/12/18 09:34:46;;;;;;;7.88;5.60;;;5.00;99.90;;;;;;5050365;28;20148;-84
2023/12/18 09:37:34;;;;;;;9.13;5.35;;;5.60;99.90;;;;;;5051955;28;20115;-82
2023/12/18 09:40:21;;;;;;;11.00;5.75;;;6.50;99.90;;;;;;5050287;28;20453;-83
2023/12/18 09:43:08;;;;;;;7.45;5.50;;;7.60;99.90;;;;;;5063313;28;20135;-83
2023/12/18 09:46:00;;;;;;;9.90;4.88;;;8.40;99.90;;;;;;5058473;28;20155;-83
2023/12/18 09:48:54;;;;;;;6.07;4.13;;;8.90;99.90;;;;;;5058493;28;20577;-83
2023/12/18 09:51:47;;;;;;;6.88;4.60;;;9.30;98.30;;;;;;5049280;28;20634;-77
2023/12/18 09:54:37;;;;;;;6.47;4.18;;;9.50;96.30;;;;;;5054979;28;20736;-81
2023/12/18 09:57:28;;;;;;;6.28;4.40;;;10.00;94.20;;;;;;5056012;28;20159;-82
2023/12/18 10:00:15;;;;;;;17.65;6.43;;;10.50;93.20;;;;;;5055552;28;20033;-81
2023/12/18 10:03:06;;;;;;;6.80;4.88;;;11.20;92.50;;;;;;5052843;28;20045;-83
2023/12/18 10:05:56;;;;;;;7.70;4.30;;;12.00;88.10;;;;;;5055099;28;20381;-86
2023/12/18 10:08:50;;;;;;;7.65;4.00;;;12.60;82.60;;;;;;5051304;28;20088;-83
2023/12/18 10:11:38;;;;;;;5.93;3.90;;;13.40;77.50;;;;;;5052332;28;20048;-84
2023/12/18 10:14:25;;;;;;;4.68;3.03;;;13.50;73.40;;;;;;5055402;28;20052;-86
2023/12/18 10:17:14;;;;;;;5.60;4.13;;;13.80;69.00;;;;;;5053287;28;20065;-86
2023/12/18 10:20:02;;;;;;;4.97;3.42;;;13.90;67.70;;;;;;5055281;28;20131;-84
2023/12/18 10:22:53;;;;;;;3.72;2.88;;;14.40;70.50;;;;;;5054364;28;20049;-86
2023/12/18 10:25:40;;;;;;;4.70;3.33;;;15.50;62.40;;;;;;5054402;28;20048;-85
2023/12/18 10:28:30;;;;;;;5.18;3.17;;;15.90;61.80;;;;;;5047720;28;20037;-85
2023/12/18 10:31:18;;;;;;;5.53;3.70;;;15.80;57.10;;;;;;5049500;28;20131;-83
2023/12/18 10:34:06;;;;;;;4.00;3.15;;;15.30;60.00;;;;;;5054307;28;20056;-82
2023/12/18 10:36:55;;;;;;;3.83;3.40;;;16.20;60.10;;;;;;5052607;28;20148;-83
2023/12/18 10:39:49;;;;;;;7.55;3.08;;;17.20;56.40;;;;;;5060163;28;20132;-84
2023/12/18 10:42:37;;;;;;;3.50;2.70;;;18.40;54.10;;;;;;5051647;28;20131;-80
2023/12/18 10:45:27;;;;;;;3.65;2.67;;;18.60;49.20;;;;;;5053732;28;20116;-82
2023/12/18 10:48:17;;;;;;;4.03;3.08;;;18.10;51.50;;;;;;5071478;28;20326;-84
2023/12/18 10:51:11;;;;;;;5.13;3.67;;;17.50;53.20;;;;;;5051551;28;20053;-85
2023/12/18 10:54:00;;;;;;;5.35;3.55;;;16.40;57.60;;;;;;5057024;28;20055;-83
2023/12/18 10:56:48;;;;;;;6.60;4.20;;;16.00;56.60;;;;;;5055826;28;20103;-83
2023/12/18 10:59:38;;;;;;;7.75;4.57;;;15.30;58.90;;;;;;5045684;28;20471;-81
2023/12/18 11:02:28;;;;;;;11.20;4.97;;;15.30;62.40;;;;;;5055342;28;20065;-81
2023/12/18 11:05:20;;;;;;;5.25;4.38;;;16.30;58.20;;;;;;5065845;28;20041;-85
2023/12/18 11:08:07;;;;;;;7.22;4.63;;;16.60;56.30;;;;;;5054184;28;20060;-83
2023/12/18 11:10:58;;;;;;;5.60;3.97;;;16.60;58.20;;;;;;5057038;28;20152;-83
2023/12/18 11:14:19;;;;;;;5.25;4.00;;;17.50;54.80;;;;;;5060622;28;20143;-84
2023/12/18 11:17:23;;;;;;;5.15;3.38;;;17.50;53.80;;;;;;5061937;28;20057;-83
2023/12/18 11:20:18;;;;;;;3.88;3.13;;;17.30;53.60;;;;;;5063275;28;20056;-84
2023/12/18 11:23:05;;;;;;;6.88;5.05;;;16.90;54.00;;;;;;5050986;28;20045;-84
2023/12/18 11:25:53;;;;;;;8.80;5.47;;;16.80;55.70;;;;;;5053105;28;20045;-82
2023/12/18 11:28:43;;;;;;;4.72;2.78;;;16.70;55.60;;;;;;5050524;28;20417;-82
2023/12/18 11:31:33;;;;;;;5.60;3.08;;;16.90;52.10;;;;;;5053675;28;20081;-83
2023/12/18 11:34:23;;;;;;;4.57;2.67;;;16.40;54.60;;;;;;5051155;28;20037;-84
2023/12/18 11:37:14;;;;;;;2.67;2.00;;;16.10;53.00;;;;;;5050177;28;20053;-84
2023/12/18 11:40:03;;;;;;;4.35;2.67;;;16.30;53.10;;;;;;5047035;28;20037;-84
2023/12/18 11:42:52;;;;;;;2.78;2.00;;;16.20;52.30;;;;;;5053728;28;20045;-78
2023/12/18 11:45:42;;;;;;;3.92;1.80;;;16.80;52.60;;;;;;5048257;28;20052;-81
2023/12/18 11:48:31;;;;;;;1.88;1.50;;;17.40;50.20;;;;;;5047928;28;20052;-83
2023/12/18 11:51:24;;;;;;;2.58;1.70;;;17.10;49.40;;;;;;5045314;28;20218;-82
2023/12/18 11:54:15;;;;;;;2.80;1.60;;;16.80;51.20;;;;;;5045811;28;20041;-81
2023/12/18 11:57:22;;;;;;;1.70;1.50;;;17.20;50.10;;;;;;5050568;28;20037;-82
2023/12/18 12:00:15;;;;;;;1.85;1.52;;;17.30;48.60;;;;;;5050444;28;20044;-82
2023/12/18 12:03:04;;;;;;;2.88;1.80;;;16.90;49.40;;;;;;5049279;28;20122;-81
2023/12/18 12:05:52;;;;;;;1.52;1.40;;;17.20;48.60;;;;;;5051850;28;20124;-83
2023/12/18 12:08:46;;;;;;;2.13;1.88;;;16.90;50.00;;;;;;5060618;28;20063;-83
2023/12/18 12:11:34;;;;;;;1.48;1.35;;;16.90;49.10;;;;;;5050023;28;20057;-84
2023/12/18 12:14:21;;;;;;;3.05;1.65;;;16.70;49.00;;;;;;5063416;28;20060;-82
2023/12/18 12:17:09;;;;;;;2.20;1.48;;;17.20;48.90;;;;;;5053831;28;20116;-84
2023/12/18 12:19:58;;;;;;;2.05;1.70;;;17.10;48.50;;;;;;5056339;28;20131;-83
2023/12/18 12:22:50;;;;;;;2.47;1.73;;;17.40;48.50;;;;;;5047498;28;20038;-83
2023/12/18 12:25:39;;;;;;;2.70;1.98;;;18.10;46.50;;;;;;5058443;28;20127;-82
2023/12/18 12:28:33;;;;;;;3.40;1.70;;;18.10;47.90;;;;;;5051890;28;20425;-82
2023/12/18 12:31:20;;;;;;;2.38;1.60;;;18.50;45.80;;;;;;5044385;28;20091;-83
2023/12/18 12:34:14;;;;;;;3.13;2.00;;;18.60;47.30;;;;;;5046425;28;20480;-86
2023/12/18 12:37:05;;;;;;;1.90;1.70;;;18.60;47.50;;;;;;5048547;28;20060;-83
2023/12/18 12:40:02;;;;;;;4.20;1.73;;;18.90;46.10;;;;;;5046568;28;20130;-80
2023/12/18 12:42:52;;;;;;;2.70;2.10;;;18.90;48.10;;;;;;5050707;28;20053;-83
2023/12/18 12:45:43;;;;;;;4.63;1.92;;;18.90;46.20;;;;;;5066796;28;20113;-84
2023/12/18 12:48:32;;;;;;;5.80;2.30;;;18.80;47.40;;;;;;5060225;28;20133;-83
2023/12/18 12:51:26;;;;;;;5.10;2.10;;;18.50;47.70;;;;;;5075606;28;20037;-83
2023/12/18 12:54:14;;;;;;;3.90;2.47;;;18.50;47.90;;;;;;5059283;28;20059;-83
2023/12/18 12:57:03;;;;;;;6.25;2.22;;;18.50;47.10;;;;;;5057915;28;20049;-84
2023/12/18 12:59:55;;;;;;;5.05;2.22;;;18.40;48.10;;;;;;5058027;28;20806;-84
2023/12/18 13:02:45;;;;;;;5.80;2.45;;;18.40;47.90;;;;;;5060958;28;20096;-84
2023/12/18 13:05:32;;;;;;;5.28;3.03;;;18.40;48.90;;;;;;5056424;28;20059;-82
2023/12/18 13:08:20;;;;;;;3.38;2.13;;;18.70;46.70;;;;;;5065408;28;20045;-84
2023/12/18 13:11:08;;;;;;;2.88;2.10;;;18.70;46.90;;;;;;5067284;28;20037;-86
2023/12/18 13:13:57;;;;;;;3.97;2.10;;;19.20;47.00;;;;;;5055656;28;20049;-86
2023/12/18 13:16:58;;;;;;;4.35;2.30;;;19.80;45.40;;;;;;5056012;28;20095;-86
2023/12/18 13:19:45;;;;;;;3.92;2.35;;;20.00;45.30;;;;;;5049117;28;20126;-86
2023/12/18 13:22:38;;;;;;;4.05;1.85;;;20.40;45.20;;;;;;5058172;28;20457;-82
2023/12/18 13:25:25;;;;;;;3.97;1.98;;;20.80;43.20;;;;;;5058248;28;20365;-85
2023/12/18 13:28:12;;;;;;;3.15;2.03;;;20.00;43.80;;;;;;5060740;28;20051;-85
2023/12/18 13:31:02;;;;;;;6.90;2.15;;;20.00;45.80;;;;;;5062862;28;20032;-84
2023/12/18 13:33:50;;;;;;;3.33;1.98;;;20.20;44.60;;;;;;5061144;28;20453;-80
2023/12/18 13:36:40;;;;;;;3.50;2.00;;;20.30;43.40;;;;;;5066547;28;20505;-84
2023/12/18 13:39:28;;;;;;;4.60;1.70;;;20.50;43.20;;;;;;5049223;28;20037;-86
2023/12/18 13:42:16;;;;;;;4.38;1.90;;;20.60;45.30;;;;;;5058385;28;20205;-80
2023/12/18 13:45:07;;;;;;;2.90;2.10;;;21.40;41.10;;;;;;5064941;28;20041;-87
2023/12/18 13:47:57;;;;;;;4.97;2.17;;;20.70;42.30;;;;;;5052351;28;20428;-84
2023/12/18 13:50:47;;;;;;;3.70;2.17;;;20.50;43.10;;;;;;5062349;28;20098;-84
2023/12/18 13:53:35;;;;;;;5.32;2.58;;;19.90;43.20;;;;;;5055731;28;20336;-84
2023/12/18 13:56:28;;;;;;;6.10;2.42;;;19.10;46.00;;;;;;5059919;28;20078;-85
2023/12/18 13:59:16;;;;;;;7.43;2.95;;;19.20;45.20;;;;;;5057307;28;20365;-85
2023/12/18 14:02:03;;;;;;;4.30;2.78;;;19.20;45.20;;;;;;5057899;28;20051;-85
2023/12/18 14:04:51;;;;;;;14.23;2.80;;;18.70;45.80;;;;;;5053896;28;20048;-87
2023/12/18 14:07:39;;;;;;;6.00;3.10;;;18.40;46.90;;;;;;5046014;28;20401;-83
2023/12/18 14:10:27;;;;;;;4.85;3.08;;;18.20;48.00;;;;;;5044359;28;20043;-86
2023/12/18 14:13:14;;;;;;;8.38;2.70;;;18.80;46.10;;;;;;5062802;28;20045;-86
2023/12/18 14:16:03;;;;;;;5.43;2.65;;;19.10;45.40;;;;;;5053279;28;20163;-85
2023/12/18 14:18:53;;;;;;;4.47;2.45;;;19.70;45.50;;;;;;5053032;28;20048;-86
2023/12/18 14:21:42;;;;;;;10.13;2.60;;;19.90;44.00;;;;;;5054177;28;20099;-87
2023/12/18 14:24:32;;;;;;;6.30;2.90;;;19.90;43.00;;;;;;5051226;28;20429;-84
2023/12/18 14:27:24;;;;;;;5.40;3.28;;;19.40;43.80;;;;;;5053401;28;20045;-86
2023/12/18 14:30:12;;;;;;;7.18;3.70;;;18.50;45.70;;;;;;5051221;28;20045;-84
2023/12/18 14:33:05;;;;;;;8.32;3.83;;;17.60;48.80;;;;;;5057230;28;20350;-81
2023/12/18 14:35:56;;;;;;;8.40;3.70;;;17.60;49.20;;;;;;5054456;28;20062;-87
2023/12/18 14:38:44;;;;;;;6.22;3.30;;;17.80;48.90;;;;;;5051615;28;20036;-85
2023/12/18 14:41:32;;;;;;;4.88;2.90;;;17.90;48.80;;;;;;5044635;28;20051;-84
2023/12/18 14:44:21;;;;;;;4.50;2.90;;;18.00;48.00;;;;;;5052336;28;20388;-84